createdAt,value
2019-02-24T00:01:35.482Z,27.60
2019-02-24T00:04:14.408Z,22.40
2019-02-24T00:06:42.019Z,24.23
2019-02-24T00:09:22.028Z,28.30
2019-02-24T00:12:02.277Z,25.40
2019-02-24T00:14:45.074Z,29.27
2019-02-24T00:17:14.729Z,27.53
2019-02-24T00:19:55.096Z,23.57
2019-02-24T00:22:27.757Z,28.27
2019-02-24T00:25:09.646Z,27.00
2019-02-24T00:27:51.668Z,18.77
2019-02-24T00:30:44.928Z,29.30
2019-02-24T00:33:21.551Z,22.13
2019-02-24T00:36:09.199Z,27.40
2019-02-24T00:38:43.242Z,21.67
2019-02-24T00:41:15.927Z,27.63
2019-02-24T00:43:57.191Z,32.27
2019-02-24T00:46:37.104Z,30.93
2019-02-24T00:49:13.160Z,28.30
2019-02-24T00:51:55.178Z,26.43
2019-02-24T00:54:52.185Z,30.03
2019-02-24T00:57:09.617Z,29.20
2019-02-24T00:59:43.690Z,31.13
2019-02-24T01:02:17.443Z,22.77
2019-02-24T01:05:09.562Z,29.80
2019-02-24T01:07:52.806Z,28.53
2019-02-24T01:10:35.111Z,30.53
2019-02-24T01:13:15.282Z,33.10
2019-02-24T01:15:55.129Z,29.17
2019-02-24T01:18:45.355Z,31.17
2019-02-24T01:21:22.286Z,30.57
2019-02-24T01:24:01.317Z,30.83
2019-02-24T01:26:37.376Z,27.57
2019-02-24T01:29:18.654Z,29.93
2019-02-24T01:31:48.315Z,33.47
2019-02-24T01:34:20.310Z,30.23
2019-02-24T01:36:55.607Z,31.93
2019-02-24T01:39:45.861Z,32.10
2019-02-24T01:42:24.211Z,31.10
2019-02-24T01:45:03.301Z,28.23
2019-02-24T01:47:46.028Z,28.67
2019-02-24T01:50:17.340Z,28.17
2019-02-24T01:52:52.819Z,30.77
2019-02-24T01:55:33.118Z,28.50
2019-02-24T01:58:04.312Z,30.80
2019-02-24T02:00:42.523Z,34.00
2019-02-24T02:03:15.256Z,25.77
2019-02-24T02:05:48.525Z,27.70
2019-02-24T02:08:23.899Z,28.57
2019-02-24T02:11:02.386Z,37.90
2019-02-24T02:13:38.081Z,36.67
2019-02-24T02:16:20.352Z,29.67
2019-02-24T02:18:56.167Z,32.60
2019-02-24T02:21:27.206Z,30.17
2019-02-24T02:24:19.853Z,28.03
2019-02-24T02:26:55.250Z,32.63
2019-02-24T02:29:26.748Z,28.53
2019-02-24T02:32:12.846Z,30.27
2019-02-24T02:34:46.653Z,31.93
2019-02-24T02:37:23.981Z,32.67
2019-02-24T02:40:01.507Z,30.93
2019-02-24T02:42:46.292Z,30.70
2019-02-24T02:45:26.321Z,25.07
2019-02-24T02:48:10.027Z,33.13
2019-02-24T02:50:50.878Z,32.13
2019-02-24T02:53:39.971Z,30.23
2019-02-24T02:56:19.986Z,33.20
2019-02-24T02:58:57.566Z,26.60
2019-02-24T03:01:33.832Z,31.70
2019-02-24T03:04:16.658Z,32.07
2019-02-24T03:06:48.250Z,30.83
2019-02-24T03:09:26.891Z,37.53
2019-02-24T03:12:16.717Z,33.17
2019-02-24T03:14:58.003Z,31.87
2019-02-24T03:17:32.707Z,30.70
2019-02-24T03:20:13.427Z,32.50
2019-02-24T03:22:55.992Z,37.43
2019-02-24T03:25:35.785Z,33.37
2019-02-24T03:28:16.399Z,28.63
2019-02-24T03:30:47.684Z,34.07
2019-02-24T03:33:30.625Z,38.63
2019-02-24T03:36:08.245Z,34.90
2019-02-24T03:38:39.408Z,36.30
2019-02-24T03:41:09.240Z,36.43
2019-02-24T03:43:40.924Z,31.93
2019-02-24T03:46:18.059Z,33.83
2019-02-24T03:48:52.138Z,36.07
2019-02-24T03:51:24.392Z,36.53
2019-02-24T03:54:03.170Z,39.10
2019-02-24T03:56:37.319Z,31.13
2019-02-24T03:59:15.283Z,30.30
2019-02-24T04:01:46.231Z,33.13
2019-02-24T04:04:26.524Z,34.40
2019-02-24T04:07:05.253Z,41.00
2019-02-24T04:09:34.798Z,30.37
2019-02-24T04:12:07.524Z,31.77
2019-02-24T04:14:46.154Z,33.50
2019-02-24T04:17:27.360Z,34.53
2019-02-24T04:20:03.014Z,35.33
2019-02-24T04:22:38.736Z,40.90
2019-02-24T04:25:11.665Z,34.87
2019-02-24T04:27:45.976Z,40.20
2019-02-24T04:30:21.474Z,36.07
2019-02-24T04:33:00.515Z,34.17
2019-02-24T04:35:39.339Z,35.23
2019-02-24T04:38:15.972Z,34.53
2019-02-24T04:40:51.443Z,34.70
2019-02-24T04:43:30.450Z,35.80
2019-02-24T04:46:05.981Z,33.73
2019-02-24T04:48:42.171Z,35.50
2019-02-24T04:51:26.277Z,36.83
2019-02-24T04:53:56.196Z,35.17
2019-02-24T04:56:27.529Z,32.07
2019-02-24T04:59:04.614Z,33.40
2019-02-24T05:01:35.817Z,34.57
2019-02-24T05:04:11.080Z,36.97
2019-02-24T05:06:39.965Z,32.67
2019-02-24T05:09:15.906Z,35.77
2019-02-24T05:11:51.873Z,29.90
2019-02-24T05:14:46.874Z,37.57
2019-02-24T05:20:02.478Z,34.13
2019-02-24T05:22:50.021Z,36.60
2019-02-24T05:25:29.460Z,35.67
2019-02-24T05:28:05.095Z,32.60
2019-02-24T05:30:43.384Z,36.47
2019-02-24T05:33:23.115Z,29.10
2019-02-24T05:35:56.408Z,30.83
2019-02-24T05:38:30.362Z,36.03
2019-02-24T05:41:06.401Z,31.10
2019-02-24T05:43:41.272Z,33.73
2019-02-24T05:46:20.165Z,29.00
2019-02-24T05:48:52.388Z,33.60
2019-02-24T05:51:29.530Z,28.73
2019-02-24T05:54:06.598Z,30.53
2019-02-24T05:56:49.173Z,34.83
2019-02-24T06:02:00.826Z,25.37
2019-02-24T06:04:33.855Z,32.57
2019-02-24T06:07:08.694Z,27.23
2019-02-24T06:09:41.006Z,31.67
2019-02-24T06:12:25.546Z,28.80
2019-02-24T06:14:58.480Z,25.87
2019-02-24T06:17:43.853Z,36.30
2019-02-24T06:20:28.238Z,32.53
2019-02-24T06:23:02.699Z,25.73
2019-02-24T06:25:44.732Z,32.57
2019-02-24T06:28:18.193Z,25.37
2019-02-24T06:30:51.299Z,30.03
2019-02-24T06:33:22.637Z,32.07
2019-02-24T06:36:00.037Z,34.60
2019-02-24T06:38:34.240Z,25.53
2019-02-24T06:41:12.378Z,30.53
2019-02-24T06:43:47.945Z,24.27
2019-02-24T06:46:26.496Z,25.60
2019-02-24T06:49:03.074Z,32.67
2019-02-24T06:51:43.992Z,29.00
2019-02-24T06:54:20.885Z,32.30
2019-02-24T06:57:01.135Z,35.50
2019-02-24T06:59:38.429Z,31.13
2019-02-24T07:02:20.695Z,34.77
2019-02-24T07:05:02.429Z,31.50
2019-02-24T07:07:42.830Z,27.00
2019-02-24T07:10:16.747Z,28.97
2019-02-24T07:12:46.399Z,36.80
2019-02-24T07:15:18.678Z,29.73
2019-02-24T07:18:04.901Z,31.17
2019-02-24T07:20:45.337Z,29.87
2019-02-24T07:23:20.359Z,28.43
2019-02-24T07:25:59.225Z,28.87
2019-02-24T07:28:34.310Z,31.80
2019-02-24T07:31:11.840Z,28.33
2019-02-24T07:33:44.585Z,29.03
2019-02-24T07:36:20.084Z,24.83
2019-02-24T07:39:08.219Z,33.27
2019-02-24T07:41:41.270Z,33.90
2019-02-24T07:44:14.624Z,26.07
2019-02-24T07:46:47.611Z,27.17
2019-02-24T07:49:16.088Z,29.20
2019-02-24T07:51:47.472Z,30.07
2019-02-24T07:54:22.166Z,30.93
2019-02-24T07:57:06.505Z,29.87
2019-02-24T07:59:50.096Z,30.10
2019-02-24T08:02:22.515Z,28.03
2019-02-24T08:05:03.055Z,29.43
2019-02-24T08:07:43.878Z,28.17
2019-02-24T08:10:21.923Z,28.27
2019-02-24T08:13:04.957Z,32.60
2019-02-24T08:15:43.061Z,33.70
2019-02-24T08:18:12.656Z,32.77
2019-02-24T08:20:51.399Z,34.97
2019-02-24T08:23:45.263Z,34.20
2019-02-24T08:26:26.237Z,33.83
2019-02-24T08:28:57.674Z,32.97
2019-02-24T08:31:32.717Z,31.60
2019-02-24T08:34:05.859Z,38.40
2019-02-24T08:36:40.633Z,33.23
2019-02-24T08:39:17.065Z,26.27
2019-02-24T08:41:53.798Z,32.13
2019-02-24T08:44:27.859Z,29.73
2019-02-24T08:47:02.929Z,30.10
2019-02-24T08:49:35.035Z,30.73
2019-02-24T08:52:08.215Z,29.53
2019-02-24T08:54:47.984Z,31.23
2019-02-24T08:57:20.810Z,31.70
2019-02-24T09:03:26.635Z,28.77
2019-02-24T09:06:09.967Z,29.83
2019-02-24T09:08:44.537Z,32.20
2019-02-24T09:11:25.360Z,29.77
2019-02-24T09:14:07.473Z,31.17
2019-02-24T09:16:42.716Z,30.30
2019-02-24T09:19:23.066Z,33.27
2019-02-24T09:22:01.989Z,31.87
2019-02-24T09:24:30.772Z,27.83
2019-02-24T09:27:02.924Z,30.23
2019-02-24T09:29:39.698Z,28.57
2019-02-24T09:32:18.155Z,26.57
2019-02-24T09:34:57.622Z,30.67
2019-02-24T09:37:32.921Z,27.23
2019-02-24T09:40:22.105Z,25.07
2019-02-24T09:42:52.806Z,25.87
2019-02-24T09:48:32.798Z,25.27
2019-02-24T09:51:02.396Z,32.00
2019-02-24T09:56:39.289Z,28.37
2019-02-24T09:59:13.914Z,26.43
2019-02-24T10:01:49.320Z,28.30
2019-02-24T10:04:23.675Z,29.27
2019-02-24T10:07:00.408Z,27.57
2019-02-24T10:09:36.658Z,27.57
2019-02-24T10:12:09.456Z,27.70
2019-02-24T10:14:49.167Z,28.13
2019-02-24T10:17:28.710Z,26.73
2019-02-24T10:20:10.734Z,27.37
2019-02-24T10:22:45.300Z,28.30
2019-02-24T10:25:18.177Z,27.70
2019-02-24T10:27:55.791Z,29.57
2019-02-24T10:30:30.113Z,27.43
2019-02-24T10:33:06.044Z,29.40
2019-02-24T10:35:50.654Z,24.93
2019-02-24T10:38:32.979Z,29.77
2019-02-24T10:41:08.053Z,27.23
2019-02-24T10:43:41.129Z,26.47
2019-02-24T10:46:22.959Z,26.50
2019-02-24T10:49:03.917Z,29.70
2019-02-24T10:51:53.155Z,22.07
2019-02-24T10:54:28.934Z,21.90
2019-02-24T10:57:14.466Z,25.57
2019-02-24T10:59:49.193Z,26.20
2019-02-24T11:02:23.920Z,22.60
2019-02-24T11:05:04.448Z,19.40
2019-02-24T11:07:37.318Z,22.83
2019-02-24T11:10:15.980Z,20.83
2019-02-24T11:12:55.336Z,20.17
2019-02-24T11:15:30.545Z,20.40
2019-02-24T11:18:03.227Z,20.37
2019-02-24T11:20:52.207Z,21.27
2019-02-24T11:23:33.268Z,19.33
2019-02-24T11:26:14.955Z,20.00
2019-02-24T11:28:53.586Z,18.37
2019-02-24T11:31:38.137Z,17.20
2019-02-24T11:34:07.266Z,19.90
2019-02-24T11:36:40.007Z,17.27
2019-02-24T11:39:18.156Z,15.50
2019-02-24T11:41:54.038Z,16.03
2019-02-24T11:44:37.258Z,17.80
2019-02-24T11:47:06.865Z,15.27
2019-02-24T11:49:50.301Z,15.87
2019-02-24T11:52:27.277Z,16.53
2019-02-24T11:55:01.604Z,11.70
2019-02-24T11:57:38.233Z,12.13
2019-02-24T12:00:27.960Z,13.53
2019-02-24T12:03:06.683Z,13.03
2019-02-24T12:05:57.838Z,11.93
2019-02-24T12:08:32.662Z,13.10
2019-02-24T12:11:07.694Z,10.97
2019-02-24T12:13:39.036Z,12.60
2019-02-24T12:16:21.819Z,10.07
2019-02-24T12:18:59.977Z,11.70
2019-02-24T12:21:31.375Z,11.57
2019-02-24T12:24:04.054Z,13.60
2019-02-24T12:29:31.474Z,11.90
2019-02-24T12:32:15.643Z,11.80
2019-02-24T12:34:45.199Z,9.90
2019-02-24T12:37:29.628Z,12.33
2019-02-24T12:40:18.665Z,10.87
2019-02-24T12:42:55.644Z,12.30
2019-02-24T12:45:29.485Z,11.17
2019-02-24T12:48:00.450Z,9.33
2019-02-24T12:50:35.753Z,11.67
2019-02-24T12:53:08.590Z,8.83
2019-02-24T12:55:50.954Z,9.07
2019-02-24T12:58:25.048Z,9.30
2019-02-24T13:01:05.583Z,6.13
2019-02-24T13:03:59.636Z,5.60
2019-02-24T13:06:32.478Z,5.40
2019-02-24T13:09:07.007Z,7.67
2019-02-24T13:11:37.604Z,7.77
2019-02-24T13:14:12.082Z,8.83
2019-02-24T13:16:48.488Z,13.90
2019-02-24T13:19:21.269Z,14.40
2019-02-24T13:21:55.283Z,13.13
2019-02-24T13:24:24.934Z,12.47
2019-02-24T13:27:00.747Z,17.47
2019-02-24T13:29:39.343Z,13.17
2019-02-24T13:32:15.076Z,11.20
2019-02-24T13:35:03.761Z,14.23
2019-02-24T13:37:36.952Z,13.13
2019-02-24T13:40:24.407Z,14.13
2019-02-24T13:42:57.632Z,12.53
2019-02-24T13:45:43.984Z,11.57
2019-02-24T13:48:18.507Z,11.30
2019-02-24T13:50:54.504Z,9.43
2019-02-24T13:53:42.366Z,10.33
2019-02-24T13:56:17.823Z,10.77
2019-02-24T13:58:51.642Z,8.30
2019-02-24T14:01:27.719Z,9.60
2019-02-24T14:04:11.311Z,9.70
2019-02-24T14:06:50.200Z,9.43
2019-02-24T14:10:02.073Z,8.60
2019-02-24T14:12:25.381Z,7.00
2019-02-24T14:15:01.647Z,8.07
2019-02-24T14:17:36.857Z,8.97
2019-02-24T14:20:11.192Z,7.13
2019-02-24T14:22:52.851Z,8.23
2019-02-24T14:25:25.754Z,8.43
2019-02-24T14:28:03.875Z,8.43
2019-02-24T14:30:42.682Z,10.80
2019-02-24T14:33:13.989Z,8.30
2019-02-24T14:35:48.739Z,8.47
2019-02-24T14:38:28.260Z,8.33
2019-02-24T14:41:08.947Z,7.27
2019-02-24T14:43:38.272Z,8.10
2019-02-24T14:46:16.093Z,8.40
2019-02-24T14:48:47.271Z,7.63
2019-02-24T14:51:21.812Z,7.07
2019-02-24T14:53:53.606Z,10.63
2019-02-24T14:56:42.826Z,9.33
2019-02-24T14:59:27.960Z,8.37
2019-02-24T15:02:05.180Z,9.93
2019-02-24T15:04:46.300Z,9.00
2019-02-24T15:07:27.482Z,10.70
2019-02-24T15:09:56.970Z,10.93
2019-02-24T15:12:26.479Z,12.63
2019-02-24T15:14:55.958Z,8.47
2019-02-24T15:17:26.284Z,11.80
2019-02-24T15:19:55.796Z,10.17
2019-02-24T15:22:25.282Z,9.20
2019-02-24T15:24:54.747Z,11.23
2019-02-24T15:27:24.242Z,10.67
2019-02-24T15:29:53.894Z,9.40
2019-02-24T15:32:23.355Z,8.77
2019-02-24T15:34:52.827Z,7.83
2019-02-24T15:37:22.288Z,8.47
2019-02-24T15:39:51.838Z,8.77
2019-02-24T15:42:21.359Z,7.03
2019-02-24T15:44:50.814Z,7.97
2019-02-24T15:47:20.317Z,8.57
2019-02-24T15:49:50.348Z,7.57
2019-02-24T15:52:19.909Z,8.13
2019-02-24T15:54:49.616Z,10.23
2019-02-24T15:57:19.994Z,9.73
2019-02-24T15:59:49.806Z,8.23
2019-02-24T16:02:19.267Z,9.97
2019-02-24T16:04:48.761Z,9.90
2019-02-24T16:07:18.527Z,9.30
2019-02-24T16:09:47.983Z,8.00
2019-02-24T16:12:17.448Z,7.40
2019-02-24T16:14:46.971Z,10.33
2019-02-24T16:17:16.450Z,8.43
2019-02-24T16:19:45.970Z,8.70
2019-02-24T16:22:15.461Z,10.77
2019-02-24T16:24:45.295Z,9.77
2019-02-24T16:27:14.766Z,10.57
2019-02-24T16:29:44.500Z,12.13
2019-02-24T16:32:13.995Z,10.33
2019-02-24T16:34:43.624Z,10.23
2019-02-24T16:37:13.091Z,9.97
2019-02-24T16:39:42.544Z,12.97
2019-02-24T16:42:12.327Z,11.77
2019-02-24T16:44:41.793Z,13.47
2019-02-24T16:47:11.256Z,12.00
2019-02-24T16:49:40.775Z,11.57
2019-02-24T16:52:10.498Z,10.23
2019-02-24T16:54:40.002Z,11.83
2019-02-24T16:57:09.468Z,11.60
2019-02-24T16:59:39.138Z,11.83
2019-02-24T17:02:08.645Z,14.90
2019-02-24T17:04:38.108Z,15.00
2019-02-24T17:07:07.578Z,17.13
2019-02-24T17:09:37.027Z,17.43
2019-02-24T17:12:06.553Z,15.27
2019-02-24T17:14:36.038Z,13.73
2019-02-24T17:17:05.826Z,12.97
2019-02-24T17:19:35.293Z,14.30
2019-02-24T17:22:05.156Z,13.30
2019-02-24T17:24:35.069Z,12.20
2019-02-24T17:27:04.746Z,9.80
2019-02-24T17:29:34.221Z,10.53
2019-02-24T17:32:04.228Z,11.97
2019-02-24T17:34:33.753Z,11.70
2019-02-24T17:37:03.282Z,11.10
2019-02-24T17:39:32.750Z,10.27
2019-02-24T17:42:02.216Z,14.10
2019-02-24T17:44:32.039Z,15.20
2019-02-24T17:47:01.490Z,13.20
2019-02-24T17:49:31.283Z,14.80
2019-02-24T17:52:00.755Z,14.17
2019-02-24T17:54:30.589Z,13.03
2019-02-24T17:57:00.215Z,17.37
2019-02-24T17:59:29.683Z,14.37
2019-02-24T18:01:59.381Z,13.43
2019-02-24T18:04:28.863Z,17.23
2019-02-24T18:06:58.318Z,14.57
2019-02-24T18:09:27.789Z,15.13
2019-02-24T18:11:57.257Z,17.13
2019-02-24T18:14:26.729Z,14.03
2019-02-24T18:16:56.462Z,16.00
2019-02-24T18:19:25.947Z,16.30
2019-02-24T18:21:55.422Z,20.20
2019-02-24T18:24:24.946Z,20.40
2019-02-24T18:26:54.817Z,19.03
2019-02-24T18:29:24.299Z,21.90
2019-02-24T18:31:53.847Z,23.10
2019-02-24T18:34:23.735Z,22.83
2019-02-24T18:36:53.175Z,20.53
2019-02-24T18:39:22.711Z,27.87
2019-02-24T18:41:52.175Z,42.87
2019-02-24T18:44:21.752Z,35.53
2019-02-24T18:46:51.215Z,41.23
2019-02-24T18:49:20.690Z,37.77
2019-02-24T18:51:50.158Z,34.00
2019-02-24T18:54:19.642Z,29.37
2019-02-24T18:56:49.102Z,55.33
2019-02-24T18:59:18.966Z,65.37
2019-02-24T19:01:48.430Z,58.17
2019-02-24T19:04:18.272Z,40.80
2019-02-24T19:06:47.739Z,41.33
2019-02-24T19:09:17.201Z,36.80
2019-02-24T19:11:46.656Z,29.13
2019-02-24T19:14:16.496Z,22.90
2019-02-24T19:16:45.979Z,18.33
2019-02-24T19:19:15.717Z,19.33
2019-02-24T19:21:45.548Z,18.33
2019-02-24T19:24:15.085Z,17.03
2019-02-24T19:26:44.543Z,15.77
2019-02-24T19:29:14.034Z,15.57
2019-02-24T19:31:43.850Z,16.37
2019-02-24T19:34:13.334Z,18.73
2019-02-24T19:36:42.839Z,21.13
2019-02-24T19:39:14.516Z,19.17
2019-02-24T19:41:43.983Z,18.80
2019-02-24T19:44:13.712Z,17.97
2019-02-24T19:46:43.172Z,17.53
2019-02-24T19:49:12.651Z,22.43
2019-02-24T19:51:42.116Z,19.43
2019-02-24T19:54:11.864Z,18.17
2019-02-24T19:56:41.322Z,21.70
2019-02-24T19:59:10.798Z,23.63
2019-02-24T20:01:40.256Z,22.57
2019-02-24T20:04:15.723Z,21.17
2019-02-24T20:06:40.899Z,21.07
2019-02-24T20:09:10.626Z,22.53
2019-02-24T20:11:40.152Z,22.57
2019-02-24T20:14:09.663Z,19.10
2019-02-24T20:16:39.126Z,23.10
2019-02-24T20:19:08.619Z,23.53
2019-02-24T20:21:38.375Z,21.83
2019-02-24T20:24:08.205Z,23.13
2019-02-24T20:26:37.658Z,24.53
2019-02-24T20:29:07.150Z,19.67
2019-02-24T20:31:36.609Z,20.00
2019-02-24T20:34:06.086Z,23.90
2019-02-24T20:36:35.543Z,22.80
2019-02-24T20:39:05.837Z,30.40
2019-02-24T20:41:35.546Z,21.60
2019-02-24T20:44:05.288Z,25.27
2019-02-24T20:46:34.762Z,23.37
2019-02-24T20:49:04.228Z,26.77
2019-02-24T20:51:33.734Z,24.33
2019-02-24T20:54:03.213Z,22.80
2019-02-24T20:56:32.678Z,22.57
2019-02-24T20:59:02.164Z,29.07
2019-02-24T21:01:31.814Z,24.27
2019-02-24T21:04:01.270Z,28.07
2019-02-24T21:06:30.744Z,27.33
2019-02-24T21:09:00.266Z,27.70
2019-02-24T21:11:29.734Z,28.60
2019-02-24T21:13:59.216Z,24.03
2019-02-24T21:16:29.038Z,26.80
2019-02-24T21:18:58.503Z,30.13
2019-02-24T21:21:27.978Z,22.60
2019-02-24T21:23:57.485Z,26.03
2019-02-24T21:26:26.965Z,26.87
2019-02-24T21:28:56.416Z,27.37
2019-02-24T21:31:25.875Z,26.07
2019-02-24T21:33:55.345Z,28.00
2019-02-24T21:36:24.801Z,27.00
2019-02-24T21:38:54.290Z,27.50
2019-02-24T21:41:24.014Z,24.80
2019-02-24T21:43:53.469Z,23.70
2019-02-24T21:46:22.937Z,23.20
2019-02-24T21:48:52.438Z,24.33
2019-02-24T21:51:22.224Z,24.00
2019-02-24T21:53:51.679Z,24.90
2019-02-24T21:56:21.168Z,22.60
2019-02-24T21:58:50.659Z,24.83
2019-02-24T22:01:20.450Z,23.40
2019-02-24T22:03:51.511Z,23.17
2019-02-24T22:06:21.055Z,23.23
2019-02-24T22:08:54.367Z,23.97
2019-02-24T22:11:23.841Z,28.97
2019-02-24T22:13:53.300Z,22.70
2019-02-24T22:16:23.120Z,23.50
2019-02-24T22:18:52.934Z,22.77
2019-02-24T22:21:22.685Z,21.73
2019-02-24T22:23:52.313Z,21.37
2019-02-24T22:26:21.791Z,21.73
2019-02-24T22:28:51.246Z,23.10
2019-02-24T22:31:20.731Z,22.43
2019-02-24T22:33:50.188Z,20.63
2019-02-24T22:36:20.041Z,22.70
2019-02-24T22:38:49.499Z,23.63
2019-02-24T22:41:18.981Z,22.17
2019-02-24T22:43:48.453Z,22.53
2019-02-24T22:46:17.925Z,21.43
2019-02-24T22:48:47.822Z,22.53
2019-02-24T22:51:17.303Z,21.57
2019-02-24T22:53:46.766Z,22.73
2019-02-24T22:56:16.262Z,24.93
2019-02-24T22:58:46.052Z,22.10
2019-02-24T23:01:18.630Z,27.10
2019-02-24T23:03:48.163Z,24.17
2019-02-24T23:06:17.947Z,23.60
2019-02-24T23:08:47.410Z,23.03
2019-02-24T23:11:16.878Z,23.57
2019-02-24T23:13:46.338Z,24.33
2019-02-24T23:16:15.808Z,20.23
2019-02-24T23:18:45.343Z,26.17
2019-02-24T23:21:14.822Z,20.23
2019-02-24T23:23:44.281Z,19.83
2019-02-24T23:26:14.112Z,24.97
2019-02-24T23:28:43.573Z,21.53
2019-02-24T23:31:13.168Z,24.50
2019-02-24T23:33:42.901Z,27.07
2019-02-24T23:36:12.491Z,24.23
2019-02-24T23:38:42.006Z,20.33
2019-02-24T23:41:11.461Z,23.37
2019-02-24T23:43:40.928Z,25.87
2019-02-24T23:46:10.572Z,26.73
2019-02-24T23:48:40.036Z,21.63
2019-02-24T23:51:09.527Z,20.93
2019-02-24T23:53:39.011Z,23.10
2019-02-24T23:56:08.495Z,22.63
2019-02-24T23:58:38.004Z,22.87
